createdAt,value
2023-05-14T00:00:49.584Z,15.61
2023-05-14T00:02:01.128Z,15.63
2023-05-14T00:03:06.608Z,15.75
2023-05-14T00:04:21.758Z,15.68
2023-05-14T00:05:30.467Z,15.58
2023-05-14T00:06:41.651Z,15.19
2023-05-14T00:07:46.279Z,15.27
2023-05-14T00:09:21.061Z,15.04
2023-05-14T00:10:25.881Z,15.09
2023-05-14T00:11:33.221Z,14.70
2023-05-14T00:12:47.711Z,14.87
2023-05-14T00:14:00.759Z,14.76
2023-05-14T00:15:10.857Z,14.64
2023-05-14T00:16:15.151Z,14.66
2023-05-14T00:17:20.825Z,14.67
2023-05-14T00:18:24.323Z,14.75
2023-05-14T00:19:28.656Z,14.79
2023-05-14T00:20:31.702Z,15.03
2023-05-14T00:21:36.113Z,14.90
2023-05-14T00:22:42.563Z,15.12
2023-05-14T00:23:47.453Z,15.12
2023-05-14T00:24:49.792Z,15.12
2023-05-14T00:25:58.445Z,15.25
2023-05-14T00:27:11.124Z,15.20
2023-05-14T00:28:17.675Z,15.15
2023-05-14T00:29:24.878Z,15.31
2023-05-14T00:30:39.914Z,15.28
2023-05-14T00:32:50.643Z,15.22
2023-05-14T00:33:54.762Z,15.32
2023-05-14T00:35:00.948Z,15.26
2023-05-14T00:36:13.220Z,15.18
2023-05-14T00:37:17.166Z,15.37
2023-05-14T00:38:26.638Z,15.42
2023-05-14T00:39:37.769Z,15.03
2023-05-14T00:40:51.444Z,15.11
2023-05-14T00:41:53.882Z,15.25
2023-05-14T00:43:00.649Z,15.14
2023-05-14T00:44:06.321Z,14.92
2023-05-14T00:45:15.283Z,15.17
2023-05-14T00:46:22.227Z,15.21
2023-05-14T00:47:30.852Z,15.16
2023-05-14T00:48:37.073Z,15.42
2023-05-14T00:49:47.585Z,15.52
2023-05-14T00:50:52.691Z,15.53
2023-05-14T00:51:59.224Z,15.44
2023-05-14T00:53:04.711Z,15.26
2023-05-14T00:54:11.308Z,15.21
2023-05-14T00:55:18.956Z,15.35
2023-05-14T00:56:24.915Z,15.40
2023-05-14T00:57:28.975Z,15.63
2023-05-14T00:58:33.863Z,15.45
2023-05-14T00:59:37.433Z,15.56
2023-05-14T01:00:44.981Z,15.72
2023-05-14T01:01:49.700Z,15.68
2023-05-14T01:02:55.171Z,15.75
2023-05-14T01:04:01.785Z,15.95
2023-05-14T01:05:08.919Z,15.98
2023-05-14T01:06:18.031Z,15.84
2023-05-14T01:07:33.583Z,15.76
2023-05-14T01:08:50.249Z,15.47
2023-05-14T01:10:01.962Z,15.53
2023-05-14T01:11:13.771Z,15.59
2023-05-14T01:12:25.021Z,15.64
2023-05-14T01:13:34.653Z,15.33
2023-05-14T01:14:48.227Z,15.32
2023-05-14T01:15:53.674Z,15.38
2023-05-14T01:17:04.064Z,15.45
2023-05-14T01:18:09.462Z,15.54
2023-05-14T01:19:23.959Z,15.65
2023-05-14T01:20:27.984Z,15.56
2023-05-14T01:21:40.782Z,15.11
2023-05-14T01:22:47.052Z,15.19
2023-05-14T01:23:53.324Z,15.37
2023-05-14T01:25:10.702Z,15.59
2023-05-14T01:26:18.260Z,15.67
2023-05-14T01:27:28.337Z,15.92
2023-05-14T01:28:36.869Z,15.99
2023-05-14T01:29:45.191Z,15.99
2023-05-14T01:30:54.618Z,15.83
2023-05-14T01:32:02.712Z,15.84
2023-05-14T01:33:12.920Z,15.68
2023-05-14T01:34:23.887Z,15.53
2023-05-14T01:35:29.739Z,15.52
2023-05-14T01:36:34.531Z,15.37
2023-05-14T01:37:41.551Z,15.35
2023-05-14T03:15:36.667Z,14.29
2023-05-14T03:16:42.680Z,14.00
2023-05-14T03:17:47.465Z,13.85
2023-05-14T03:18:55.040Z,13.73
2023-05-14T03:20:02.694Z,13.84
2023-05-14T03:21:06.000Z,14.21
2023-05-14T03:22:18.610Z,14.07
2023-05-14T03:23:26.894Z,13.94
2023-05-14T03:24:30.645Z,14.21
2023-05-14T03:25:35.279Z,14.16
2023-05-14T03:26:41.774Z,14.22
2023-05-14T03:27:45.718Z,14.27
2023-05-14T03:28:49.609Z,14.49
2023-05-14T03:29:56.759Z,14.63
2023-05-14T03:31:06.477Z,14.70
2023-05-14T03:32:09.689Z,14.47
2023-05-14T03:33:17.065Z,14.48
2023-05-14T03:34:20.142Z,14.78
2023-05-14T03:35:31.022Z,14.40
2023-05-14T03:36:36.619Z,14.35
2023-05-14T03:37:47.816Z,14.60
2023-05-14T03:38:56.004Z,14.64
2023-05-14T03:40:06.220Z,14.69
2023-05-14T03:41:22.228Z,14.86
2023-05-14T03:42:30.699Z,14.93
2023-05-14T03:43:35.376Z,15.03
2023-05-14T03:44:40.524Z,14.65
2023-05-14T03:45:47.364Z,14.65
2023-05-14T03:46:52.904Z,14.74
2023-05-14T03:47:59.068Z,14.54
2023-05-14T03:49:02.151Z,14.63
2023-05-14T03:50:08.688Z,14.43
2023-05-14T03:51:11.167Z,13.97
2023-05-14T03:52:15.877Z,14.16
2023-05-14T03:53:23.892Z,14.21
2023-05-14T03:54:38.808Z,14.01
2023-05-14T03:55:45.185Z,13.67
2023-05-14T03:56:54.060Z,13.89
2023-05-14T03:57:59.580Z,14.18
2023-05-14T03:59:25.251Z,14.13
2023-05-14T04:00:32.958Z,14.13
2023-05-14T04:01:45.030Z,14.32
2023-05-14T04:02:56.766Z,14.38
2023-05-14T04:04:00.756Z,14.54
2023-05-14T04:05:11.852Z,14.69
2023-05-14T04:06:16.807Z,14.74
2023-05-14T04:07:25.449Z,14.85
2023-05-14T04:08:29.386Z,14.57
2023-05-14T04:09:37.238Z,14.36
2023-05-14T04:10:41.598Z,14.47
2023-05-14T04:11:49.647Z,14.39
2023-05-14T04:12:52.038Z,14.35
2023-05-14T04:13:56.521Z,14.46
2023-05-14T04:15:01.637Z,14.21
2023-05-14T04:16:12.880Z,13.92
2023-05-14T04:17:17.771Z,14.17
2023-05-14T04:18:30.068Z,14.13
2023-05-14T04:19:44.987Z,14.18
2023-05-14T04:20:50.408Z,14.24
2023-05-14T04:21:58.065Z,14.42
2023-05-14T04:23:05.421Z,14.41
2023-05-14T04:24:11.195Z,14.64
2023-05-14T04:25:22.553Z,14.97
2023-05-14T04:26:29.764Z,14.80
2023-05-14T04:27:35.422Z,14.72
2023-05-14T04:28:40.731Z,14.71
2023-05-14T04:29:44.752Z,14.60
2023-05-14T04:30:51.507Z,14.60
2023-05-14T04:31:59.466Z,14.67
2023-05-14T04:33:03.998Z,14.54
2023-05-14T04:34:11.853Z,14.49
2023-05-14T04:35:14.594Z,14.58
2023-05-14T04:36:19.233Z,14.75
2023-05-14T04:37:22.338Z,14.98
2023-05-14T04:38:26.534Z,15.10
2023-05-14T04:39:30.847Z,15.26
2023-05-14T04:40:34.997Z,15.16
2023-05-14T04:41:39.459Z,15.05
2023-05-14T04:42:44.051Z,14.93
2023-05-14T04:43:52.161Z,14.86
2023-05-14T04:44:56.483Z,14.51
2023-05-14T04:46:09.162Z,14.25
2023-05-14T04:47:18.772Z,14.10
2023-05-14T04:48:29.385Z,14.03
2023-05-14T04:49:35.654Z,14.27
2023-05-14T04:50:47.374Z,14.31
2023-05-14T04:51:52.857Z,14.20
2023-05-14T04:52:59.927Z,14.34
2023-05-14T04:54:08.730Z,14.57
2023-05-14T04:55:15.711Z,14.76
2023-05-14T04:56:20.149Z,14.70
2023-05-14T04:58:50.232Z,14.55
2023-05-14T04:59:54.136Z,14.31
2023-05-14T05:01:07.444Z,14.40
2023-05-14T05:02:12.285Z,14.66
2023-05-14T05:03:29.502Z,14.69
2023-05-14T05:04:38.413Z,14.72
2023-05-14T05:05:46.644Z,14.74
2023-05-14T05:07:11.560Z,14.37
2023-05-14T05:08:24.316Z,14.54
2023-05-14T05:09:39.021Z,14.75
2023-05-14T05:10:45.882Z,14.77
2023-05-14T05:11:48.628Z,14.67
2023-05-14T05:12:53.713Z,14.71
2023-05-14T05:13:58.853Z,14.66
2023-05-14T05:15:15.030Z,14.84
2023-05-14T05:16:26.807Z,15.10
2023-05-14T05:17:32.266Z,15.25
2023-05-14T05:18:35.900Z,14.94
2023-05-14T05:19:44.238Z,14.96
2023-05-14T05:20:51.676Z,14.76
2023-05-14T05:22:08.596Z,14.80
2023-05-14T05:23:21.352Z,14.84
2023-05-14T05:24:24.585Z,15.02
2023-05-14T05:25:29.346Z,15.14
2023-05-14T05:26:41.212Z,15.30
2023-05-14T05:27:46.796Z,15.46
2023-05-14T05:29:10.404Z,15.53
2023-05-14T05:30:14.567Z,15.24
2023-05-14T05:31:20.888Z,15.24
2023-05-14T05:32:23.708Z,15.20
2023-05-14T05:33:33.894Z,15.23
2023-05-14T05:34:38.017Z,15.21
2023-05-14T05:35:56.222Z,15.13
2023-05-14T05:37:03.305Z,15.00
2023-05-14T05:38:15.336Z,15.22
2023-05-14T05:39:32.016Z,15.36
2023-05-14T05:41:02.006Z,15.27
2023-05-14T05:42:11.119Z,15.51
2023-05-14T05:43:18.915Z,15.52
2023-05-14T05:44:21.684Z,15.63
2023-05-14T05:45:38.867Z,15.70
2023-05-14T05:46:47.128Z,15.39
2023-05-14T05:47:51.926Z,15.02
2023-05-14T05:48:55.874Z,15.07
2023-05-14T05:50:01.733Z,15.07
2023-05-14T05:52:31.060Z,15.20
2023-05-14T05:53:38.093Z,15.33
2023-05-14T05:55:03.945Z,15.47
2023-05-14T05:56:39.326Z,15.65
2023-05-14T05:58:03.653Z,15.58
2023-05-14T05:59:18.383Z,15.79
2023-05-14T06:00:27.539Z,15.89
2023-05-14T06:01:35.940Z,15.74
2023-05-14T06:04:02.559Z,15.65
2023-05-14T06:05:13.013Z,15.76
2023-05-14T06:06:20.848Z,15.85
2023-05-14T06:08:49.874Z,15.82
2023-05-14T06:09:59.155Z,15.63
2023-05-14T06:11:05.709Z,15.74
2023-05-14T06:12:13.421Z,15.82
2023-05-14T06:13:25.098Z,16.14
2023-05-14T06:14:35.008Z,16.24
2023-05-14T06:15:39.133Z,16.38
2023-05-14T06:16:48.028Z,16.38
2023-05-14T06:17:54.289Z,16.50
2023-05-14T06:19:07.949Z,16.31
2023-05-14T06:20:14.135Z,16.28
2023-05-14T06:21:26.909Z,16.14
2023-05-14T06:22:32.660Z,16.14
2023-05-14T06:25:04.806Z,16.39
2023-05-14T06:26:14.666Z,16.38
2023-05-14T06:27:17.504Z,16.50
2023-05-14T06:28:33.418Z,16.60
2023-05-14T06:29:41.781Z,16.62
2023-05-14T06:30:53.244Z,16.67
2023-05-14T06:35:15.324Z,16.32
2023-05-14T06:36:21.794Z,16.36
2023-05-14T06:37:33.756Z,16.40
2023-05-14T06:38:40.343Z,16.42
2023-05-14T06:39:51.586Z,16.40
2023-05-14T06:41:04.300Z,16.48
2023-05-14T06:42:14.204Z,16.59
2023-05-14T07:13:16.732Z,16.54
2023-05-14T07:14:19.855Z,16.64
2023-05-14T07:15:24.290Z,16.75
2023-05-14T07:16:38.057Z,16.57
2023-05-14T07:17:41.907Z,16.54
2023-05-14T07:18:47.849Z,16.70
2023-05-14T07:19:52.474Z,16.27
2023-05-14T07:20:58.265Z,15.96
2023-05-14T07:22:21.593Z,16.14
2023-05-14T07:23:24.830Z,15.91
2023-05-14T07:24:33.255Z,16.03
2023-05-14T07:25:43.464Z,15.90
2023-05-14T07:26:48.006Z,16.01
2023-05-14T07:27:52.402Z,16.20
2023-05-14T07:29:36.141Z,16.44
2023-05-14T07:30:38.993Z,16.62
2023-05-14T07:31:43.363Z,16.45
2023-05-14T07:33:13.641Z,16.71
2023-05-14T07:34:45.706Z,16.82
2023-05-14T07:36:02.270Z,16.53
2023-05-14T07:37:11.110Z,16.72
2023-05-14T07:38:18.450Z,16.70
2023-05-14T07:39:41.817Z,16.66
2023-05-14T07:40:46.680Z,16.81
2023-05-14T07:41:51.315Z,17.17
2023-05-14T07:42:53.727Z,17.47
2023-05-14T07:43:57.244Z,17.78
2023-05-14T07:45:03.372Z,18.12
2023-05-14T07:46:06.945Z,18.37
2023-05-14T07:47:10.086Z,18.70
2023-05-14T07:48:24.813Z,18.82
2023-05-14T07:49:35.351Z,18.97
2023-05-14T07:50:43.749Z,19.09
2023-05-14T07:51:46.396Z,19.13
2023-05-14T07:52:50.573Z,18.74
2023-05-14T07:53:53.333Z,19.09
2023-05-14T07:54:57.179Z,18.94
2023-05-14T07:56:01.699Z,18.88
2023-05-14T07:57:04.779Z,18.49
2023-05-14T07:58:11.144Z,18.65
2023-05-14T07:59:16.417Z,19.10
2023-05-14T08:00:26.491Z,19.30
2023-05-14T08:01:37.745Z,19.18
2023-05-14T08:02:43.210Z,19.06
2023-05-14T08:03:46.387Z,18.91
2023-05-14T08:04:49.987Z,18.85
2023-05-14T08:05:53.367Z,19.24
2023-05-14T08:06:58.891Z,19.48
2023-05-14T08:08:02.186Z,19.68
2023-05-14T08:09:23.813Z,19.78
2023-05-14T08:10:35.912Z,19.84
2023-05-14T08:11:39.650Z,19.95
2023-05-14T08:12:43.862Z,19.27
2023-05-14T08:13:48.579Z,19.27
2023-05-14T08:14:53.683Z,19.35
2023-05-14T08:15:57.992Z,19.68
2023-05-14T08:17:04.905Z,19.70
2023-05-14T08:18:08.157Z,19.86
2023-05-14T08:19:15.359Z,20.01
2023-05-14T08:20:20.387Z,20.07
2023-05-14T08:21:28.370Z,20.07
2023-05-14T08:22:37.674Z,20.04
2023-05-14T08:23:41.665Z,19.95
2023-05-14T08:24:44.635Z,19.83
2023-05-14T08:26:06.415Z,19.85
2023-05-14T08:27:14.907Z,19.96
2023-05-14T08:28:21.362Z,19.99
2023-05-14T08:29:24.025Z,20.09
2023-05-14T08:30:28.530Z,20.22
2023-05-14T08:31:33.210Z,20.14
2023-05-14T08:32:38.772Z,20.18
2023-05-14T08:33:47.292Z,20.11
2023-05-14T08:34:54.061Z,20.16
2023-05-14T08:35:58.858Z,19.55
2023-05-14T08:37:03.188Z,19.77
2023-05-14T08:38:06.477Z,19.15
2023-05-14T08:39:10.363Z,19.43
2023-05-14T08:40:14.062Z,19.23
2023-05-14T08:41:20.300Z,19.25
2023-05-14T08:42:25.943Z,19.01
2023-05-14T08:43:52.465Z,19.14
2023-05-14T08:45:01.462Z,19.41
2023-05-14T08:46:07.987Z,19.73
2023-05-14T08:47:16.572Z,19.96
2023-05-14T08:48:25.009Z,19.96
2023-05-14T08:49:40.613Z,20.32
2023-05-14T08:50:46.059Z,20.27
2023-05-14T08:51:49.550Z,20.18
2023-05-14T08:52:59.488Z,20.33
2023-05-14T08:54:04.062Z,20.23
2023-05-14T08:55:22.021Z,20.02
2023-05-14T08:56:32.408Z,20.27
2023-05-14T08:57:46.016Z,20.43
2023-05-14T08:58:51.061Z,20.69
2023-05-14T09:00:00.491Z,20.72
2023-05-14T09:01:08.313Z,20.54
2023-05-14T09:02:18.509Z,20.50
2023-05-14T09:03:23.468Z,20.79
2023-05-14T09:04:27.920Z,20.85
2023-05-14T09:05:33.761Z,20.71
2023-05-14T09:06:44.307Z,20.65
2023-05-14T09:07:47.567Z,20.78
2023-05-14T09:08:52.837Z,20.80
2023-05-14T09:10:02.633Z,20.86
2023-05-14T09:11:07.522Z,20.77
2023-05-14T09:12:11.482Z,20.81
2023-05-14T09:13:15.899Z,20.72
2023-05-14T09:14:19.212Z,20.65
2023-05-14T09:15:29.222Z,20.82
2023-05-14T09:16:32.573Z,20.84
2023-05-14T09:17:42.392Z,21.04
2023-05-14T09:18:48.772Z,20.99
2023-05-14T09:19:54.992Z,20.98
2023-05-14T09:21:01.521Z,20.77
2023-05-14T09:22:11.565Z,20.90
2023-05-14T09:23:15.683Z,21.14
2023-05-14T09:24:29.615Z,20.94
2023-05-14T09:25:35.518Z,20.82
2023-05-14T09:26:39.625Z,20.81
2023-05-14T09:27:42.690Z,20.72
2023-05-14T09:28:50.063Z,20.84
2023-05-14T09:29:53.038Z,21.00
2023-05-14T09:31:06.114Z,21.12
2023-05-14T09:32:25.069Z,21.07
2023-05-14T09:33:33.495Z,21.33
2023-05-14T09:34:39.136Z,21.30
2023-05-14T09:35:43.669Z,21.55
2023-05-14T09:36:48.767Z,21.46
2023-05-14T09:38:10.767Z,21.61
2023-05-14T09:39:22.824Z,21.81
2023-05-14T09:40:29.358Z,21.74
2023-05-14T09:41:33.288Z,21.65
2023-05-14T09:42:45.575Z,21.76
2023-05-14T09:43:48.857Z,21.76
2023-05-14T09:44:57.738Z,21.93
2023-05-14T09:46:01.982Z,21.97
2023-05-14T09:47:09.829Z,22.12
2023-05-14T09:48:15.013Z,22.17
2023-05-14T09:49:23.801Z,22.26
2023-05-14T09:50:36.283Z,22.27
2023-05-14T09:52:04.662Z,22.32
2023-05-14T09:53:12.974Z,22.16
2023-05-14T09:54:16.262Z,22.08
2023-05-14T09:55:22.911Z,22.15
2023-05-14T09:56:29.060Z,21.65
2023-05-14T09:57:33.947Z,21.54
2023-05-14T09:58:41.885Z,21.52
2023-05-14T09:59:47.954Z,21.53
2023-05-14T10:00:53.167Z,21.25
2023-05-14T10:02:07.435Z,20.64
2023-05-14T10:03:20.526Z,20.45
2023-05-14T10:04:29.638Z,20.69
2023-05-14T10:05:39.983Z,20.32
2023-05-14T10:06:59.433Z,20.65
2023-05-14T10:08:11.524Z,21.10
2023-05-14T10:09:18.649Z,20.91
2023-05-14T10:10:26.586Z,21.09
2023-05-14T10:11:44.187Z,20.95
2023-05-14T10:12:56.459Z,21.07
2023-05-14T10:14:09.670Z,21.34
2023-05-14T10:15:19.298Z,21.02
2023-05-14T10:16:28.866Z,21.01
2023-05-14T10:17:36.678Z,21.02
2023-05-14T10:18:42.052Z,20.74
2023-05-14T10:19:55.320Z,20.57
2023-05-14T10:21:04.570Z,20.66
2023-05-14T10:22:12.231Z,20.87
2023-05-14T10:23:15.344Z,20.90
2023-05-14T10:24:20.868Z,21.09
2023-05-14T10:25:27.451Z,21.16
2023-05-14T10:26:31.750Z,21.56
2023-05-14T10:27:37.065Z,21.78
2023-05-14T10:28:41.243Z,21.78
2023-05-14T10:29:55.327Z,21.57
2023-05-14T10:31:00.668Z,21.35
2023-05-14T10:32:07.385Z,21.17
2023-05-14T10:33:12.450Z,21.36
2023-05-14T10:34:34.838Z,21.11
2023-05-14T10:35:59.628Z,21.40
2023-05-14T10:37:03.762Z,21.48
2023-05-14T10:38:10.228Z,21.36
2023-05-14T10:39:13.474Z,21.26
2023-05-14T10:40:18.884Z,21.35
2023-05-14T10:41:22.314Z,21.56
2023-05-14T10:42:29.208Z,21.75
2023-05-14T10:43:36.907Z,22.03
2023-05-14T10:44:51.731Z,21.93
2023-05-14T10:45:59.992Z,21.67
2023-05-14T10:47:03.685Z,21.55
2023-05-14T10:48:08.553Z,21.35
2023-05-14T10:49:12.656Z,21.30
2023-05-14T10:50:17.845Z,21.40
2023-05-14T10:51:23.365Z,21.53
2023-05-14T10:52:28.343Z,21.46
2023-05-14T10:53:36.056Z,21.46
2023-05-14T10:55:29.565Z,21.50
2023-05-14T10:56:34.845Z,20.83
2023-05-14T10:57:40.186Z,20.67
2023-05-14T10:58:46.098Z,21.12
2023-05-14T10:59:50.486Z,21.05
2023-05-14T11:00:57.164Z,20.85
2023-05-14T11:02:00.099Z,20.87
2023-05-14T11:03:09.790Z,20.78
2023-05-14T11:04:20.991Z,20.83
2023-05-14T11:05:27.916Z,20.99
2023-05-14T11:06:40.608Z,21.20
2023-05-14T11:07:46.857Z,21.23
2023-05-14T11:08:51.983Z,21.30
2023-05-14T11:10:06.037Z,20.75
2023-05-14T11:11:10.549Z,20.96
2023-05-14T11:12:14.401Z,21.10
2023-05-14T11:13:18.927Z,21.18
2023-05-14T11:14:23.209Z,20.94
2023-05-14T11:15:28.698Z,20.71
2023-05-14T11:16:32.055Z,20.71
2023-05-14T11:17:37.377Z,20.53
2023-05-14T11:18:42.187Z,20.42
2023-05-14T11:19:46.290Z,20.21
2023-05-14T11:20:52.850Z,20.29
2023-05-14T11:21:58.318Z,19.93
2023-05-14T11:23:03.906Z,19.58
2023-05-14T11:24:07.657Z,19.45
2023-05-14T11:25:15.134Z,19.26
2023-05-14T11:26:21.406Z,19.48
2023-05-14T11:27:26.629Z,19.22
2023-05-14T11:28:33.284Z,18.94
2023-05-14T11:29:38.436Z,18.91
2023-05-14T11:30:41.085Z,18.58
2023-05-14T11:31:45.078Z,18.60
2023-05-14T11:32:50.463Z,18.69
2023-05-14T11:33:53.827Z,18.65
2023-05-14T11:35:00.261Z,18.46
2023-05-14T11:36:02.879Z,18.58
2023-05-14T11:37:09.742Z,18.62
2023-05-14T11:38:15.969Z,18.56
2023-05-14T11:39:20.973Z,18.76
2023-05-14T11:40:25.757Z,18.80
2023-05-14T11:41:31.264Z,18.55
2023-05-14T11:42:33.978Z,18.64
2023-05-14T11:43:38.404Z,18.60
2023-05-14T11:44:42.521Z,18.57
2023-05-14T11:45:51.351Z,18.62
2023-05-14T11:46:58.027Z,18.66
2023-05-14T11:48:01.872Z,18.57
2023-05-14T11:49:05.145Z,18.53
2023-05-14T11:50:10.518Z,18.45
2023-05-14T11:51:13.634Z,18.50
2023-05-14T11:52:22.275Z,18.50
2023-05-14T11:53:28.690Z,18.61
2023-05-14T11:54:37.032Z,18.70
2023-05-14T11:55:40.420Z,18.72
2023-05-14T11:56:44.705Z,18.46
2023-05-14T11:57:49.185Z,18.53
2023-05-14T11:58:57.425Z,18.48
2023-05-14T12:00:01.406Z,18.41
2023-05-14T12:01:10.391Z,18.36
2023-05-14T12:02:15.687Z,18.35
2023-05-14T12:03:23.843Z,18.31
2023-05-14T12:04:28.433Z,18.27
2023-05-14T12:05:39.835Z,18.06
2023-05-14T12:06:43.936Z,18.08
2023-05-14T12:07:48.548Z,18.04
2023-05-14T12:08:52.633Z,17.90
2023-05-14T12:09:55.666Z,17.85
2023-05-14T12:11:01.194Z,17.79
2023-05-14T12:12:11.225Z,17.62
2023-05-14T12:13:16.510Z,17.68
2023-05-14T12:14:22.080Z,17.56
2023-05-14T12:15:26.915Z,17.58
2023-05-14T12:16:33.988Z,17.62
2023-05-14T12:17:39.508Z,17.74
2023-05-14T12:18:44.661Z,17.78
2023-05-14T12:19:52.307Z,17.84
2023-05-14T12:20:58.154Z,17.86
2023-05-14T12:22:01.757Z,17.89
2023-05-14T12:23:16.325Z,17.81
2023-05-14T12:24:20.374Z,17.71
2023-05-14T12:25:27.343Z,17.68
2023-05-14T12:26:35.663Z,17.68
2023-05-14T12:27:39.669Z,17.62
2023-05-14T12:28:48.424Z,17.70
2023-05-14T12:30:12.929Z,17.66
2023-05-14T12:31:30.159Z,17.77
2023-05-14T12:32:35.564Z,17.83
2023-05-14T12:33:39.101Z,17.82
2023-05-14T12:34:46.494Z,17.79
2023-05-14T12:35:50.745Z,17.76
2023-05-14T12:36:55.571Z,17.89
2023-05-14T12:37:59.382Z,17.95
2023-05-14T12:39:03.810Z,17.93
2023-05-14T12:40:09.850Z,17.95
2023-05-14T12:41:12.813Z,18.05
2023-05-14T12:42:16.999Z,18.19
2023-05-14T12:43:20.873Z,18.23
2023-05-14T12:44:31.806Z,18.24
2023-05-14T12:45:34.641Z,18.42
2023-05-14T12:46:38.893Z,18.39
2023-05-14T12:47:42.110Z,18.49
2023-05-14T12:48:46.748Z,18.50
2023-05-14T12:49:49.731Z,18.58
2023-05-14T12:50:54.126Z,18.56
2023-05-14T12:52:17.096Z,18.37
2023-05-14T12:53:22.660Z,18.44
2023-05-14T12:54:27.140Z,18.47
2023-05-14T12:55:40.805Z,18.33
2023-05-14T12:56:48.288Z,18.21
2023-05-14T12:57:51.514Z,18.02
2023-05-14T12:58:56.777Z,17.81
2023-05-14T12:59:59.747Z,17.68
2023-05-14T13:01:03.976Z,17.51
2023-05-14T13:02:08.440Z,17.44
2023-05-14T13:03:11.329Z,17.35
2023-05-14T13:04:16.233Z,17.04
2023-05-14T13:05:19.663Z,16.81
2023-05-14T13:06:23.779Z,16.86
2023-05-14T13:07:26.495Z,16.59
2023-05-14T13:08:30.686Z,16.69
2023-05-14T13:09:36.038Z,16.73
2023-05-14T13:10:43.090Z,16.60
2023-05-14T13:11:46.935Z,16.66
2023-05-14T13:12:50.882Z,16.48
2023-05-14T13:13:54.893Z,16.44
2023-05-14T13:14:57.717Z,16.26
2023-05-14T13:16:04.157Z,16.02
2023-05-14T13:17:08.753Z,15.81
2023-05-14T13:18:13.049Z,15.79
2023-05-14T13:19:15.984Z,15.65
2023-05-14T13:20:20.120Z,15.54
2023-05-14T13:21:22.908Z,15.54
2023-05-14T13:22:28.963Z,15.53
2023-05-14T13:23:31.798Z,15.46
2023-05-14T13:24:37.582Z,15.37
2023-05-14T13:25:40.496Z,15.46
2023-05-14T13:26:45.204Z,15.47
2023-05-14T13:27:50.959Z,15.48
2023-05-14T13:28:55.254Z,15.47
2023-05-14T13:30:09.802Z,15.49
2023-05-14T13:31:16.272Z,15.53
2023-05-14T13:32:22.562Z,15.67
2023-05-14T13:33:26.161Z,15.80
2023-05-14T13:34:31.122Z,15.87
2023-05-14T13:35:34.863Z,15.97
2023-05-14T13:36:39.985Z,15.99
2023-05-14T13:37:43.992Z,15.98
2023-05-14T13:38:48.021Z,16.01
2023-05-14T13:39:54.952Z,15.83
2023-05-14T13:41:02.663Z,15.94
2023-05-14T13:42:08.022Z,15.96
2023-05-14T13:43:10.993Z,16.02
2023-05-14T13:44:15.202Z,16.03
2023-05-14T13:45:18.965Z,16.06
2023-05-14T13:46:23.804Z,16.24
2023-05-14T13:47:27.135Z,16.29
2023-05-14T13:48:37.503Z,16.26
2023-05-14T13:49:48.538Z,16.31
2023-05-14T13:50:52.876Z,16.37
2023-05-14T13:51:57.662Z,16.43
2023-05-14T13:53:02.933Z,16.53
2023-05-14T13:54:06.962Z,16.60
2023-05-14T13:55:16.377Z,16.75
2023-05-14T13:56:22.829Z,16.65
2023-05-14T13:57:29.711Z,16.84
2023-05-14T13:58:33.845Z,16.85
2023-05-14T13:59:37.015Z,16.89
2023-05-14T14:00:41.822Z,16.92
2023-05-14T14:01:48.254Z,16.99
2023-05-14T14:02:51.424Z,17.01
2023-05-14T14:03:56.142Z,16.92
2023-05-14T14:04:59.591Z,17.05
2023-05-14T14:07:22.806Z,17.26
2023-05-14T14:08:32.209Z,17.39
2023-05-14T14:09:37.561Z,17.52
2023-05-14T14:10:43.477Z,17.62
2023-05-14T14:11:52.330Z,17.73
2023-05-14T14:12:57.963Z,17.75
2023-05-14T14:14:02.870Z,17.86
2023-05-14T14:15:08.112Z,17.94
2023-05-14T14:16:12.068Z,18.09
2023-05-14T14:17:14.918Z,18.24
2023-05-14T14:18:19.206Z,18.45
2023-05-14T14:19:23.004Z,18.58
2023-05-14T14:20:27.414Z,18.72
2023-05-14T14:21:53.765Z,18.97
2023-05-14T14:23:50.631Z,19.37
2023-05-14T14:25:00.589Z,19.69
2023-05-14T14:26:10.405Z,19.87
2023-05-14T14:28:05.108Z,19.92
2023-05-14T14:30:08.897Z,19.81
2023-05-14T14:31:13.429Z,19.66
2023-05-14T14:32:16.655Z,19.59
2023-05-14T14:33:21.018Z,19.59
2023-05-14T14:34:29.033Z,19.65
2023-05-14T14:35:34.168Z,19.69
2023-05-14T14:36:45.711Z,19.75
2023-05-14T14:38:00.087Z,19.87
2023-05-14T14:39:31.591Z,19.88
2023-05-14T14:40:37.178Z,19.93
2023-05-14T14:42:09.185Z,19.88
2023-05-14T14:43:19.039Z,19.91
2023-05-14T14:44:22.517Z,19.90
2023-05-14T14:45:26.945Z,19.92
2023-05-14T14:46:29.844Z,20.02
2023-05-14T14:47:35.284Z,20.00
2023-05-14T14:48:43.026Z,20.07
2023-05-14T14:50:27.913Z,20.06
2023-05-14T14:51:35.663Z,19.81
2023-05-14T14:52:45.780Z,19.72
2023-05-14T14:53:59.054Z,19.66
2023-05-14T14:55:02.731Z,19.60
2023-05-14T14:56:08.089Z,19.50
2023-05-14T14:57:19.006Z,19.54
2023-05-14T14:58:25.184Z,19.47
2023-05-14T14:59:30.372Z,19.52
2023-05-14T15:00:34.148Z,19.42
2023-05-14T15:01:37.981Z,19.34
2023-05-14T15:02:45.749Z,19.24
2023-05-14T15:03:51.593Z,19.30
2023-05-14T15:04:54.698Z,19.22
2023-05-14T15:05:58.640Z,19.16
2023-05-14T15:07:06.161Z,19.01
2023-05-14T15:08:11.340Z,18.63
2023-05-14T15:09:27.300Z,18.49
2023-05-14T15:10:32.000Z,18.42
2023-05-14T15:11:37.434Z,18.40
2023-05-14T15:12:43.943Z,18.47
2023-05-14T15:13:47.937Z,18.40
2023-05-14T15:14:50.669Z,18.37
2023-05-14T15:15:54.552Z,18.46
2023-05-14T15:16:59.662Z,18.34
2023-05-14T15:18:04.620Z,18.23
2023-05-14T15:19:10.025Z,18.08
2023-05-14T15:20:14.966Z,18.16
2023-05-14T15:21:19.006Z,18.04
2023-05-14T15:22:23.744Z,17.94
2023-05-14T15:23:26.518Z,17.89
2023-05-14T15:24:37.560Z,17.74
2023-05-14T15:26:03.377Z,17.79
2023-05-14T15:27:09.643Z,17.84
2023-05-14T15:28:15.572Z,17.87
2023-05-14T15:29:18.393Z,17.92
2023-05-14T15:30:25.014Z,17.96
2023-05-14T15:31:28.306Z,17.97
2023-05-14T15:32:32.669Z,17.96
2023-05-14T15:33:36.359Z,17.98
2023-05-14T15:34:50.670Z,17.94
2023-05-14T15:36:03.722Z,17.91
2023-05-14T15:37:09.172Z,17.86
2023-05-14T15:38:13.274Z,17.74
2023-05-14T15:39:16.472Z,17.73
2023-05-14T15:40:23.732Z,17.72
2023-05-14T15:41:29.370Z,17.62
2023-05-14T15:42:42.879Z,17.55
2023-05-14T15:43:49.048Z,17.59
2023-05-14T15:45:01.656Z,17.61
2023-05-14T15:46:07.744Z,17.68
2023-05-14T15:47:15.977Z,17.70
2023-05-14T15:48:20.095Z,17.78
2023-05-14T15:49:26.447Z,17.87
2023-05-14T15:50:32.805Z,17.96
2023-05-14T15:51:40.754Z,18.00
2023-05-14T15:52:54.140Z,18.10
2023-05-14T15:54:15.296Z,18.06
2023-05-14T15:55:26.262Z,18.15
2023-05-14T15:56:32.713Z,18.19
2023-05-14T15:59:16.765Z,18.11
2023-05-14T16:00:22.798Z,17.98
2023-05-14T16:01:28.851Z,18.14
2023-05-14T16:02:33.534Z,18.19
2023-05-14T16:03:37.249Z,18.06
2023-05-14T16:04:46.002Z,18.15
2023-05-14T16:05:49.586Z,18.14
2023-05-14T16:06:59.587Z,18.15
2023-05-14T16:08:32.940Z,18.12
2023-05-14T16:13:36.904Z,18.31
2023-05-14T16:14:49.719Z,18.46
2023-05-14T16:15:56.029Z,18.53
2023-05-14T16:17:02.073Z,18.50
2023-05-14T16:18:08.920Z,18.55
2023-05-14T16:19:12.178Z,18.58
2023-05-14T16:20:17.481Z,18.64
2023-05-14T16:21:30.950Z,18.57
2023-05-14T16:22:41.151Z,18.58
2023-05-14T16:23:47.064Z,18.63
2023-05-14T16:25:06.236Z,18.59
2023-05-14T16:26:31.698Z,18.45
2023-05-14T16:27:51.494Z,18.22
2023-05-14T16:28:54.041Z,18.22
2023-05-14T16:30:04.928Z,18.23
2023-05-14T16:31:07.913Z,18.20
2023-05-14T16:32:14.775Z,18.23
2023-05-14T16:33:18.810Z,18.22
2023-05-14T16:34:24.211Z,18.21
2023-05-14T16:35:28.945Z,18.18
2023-05-14T16:36:33.203Z,18.05
2023-05-14T16:37:37.007Z,18.07
2023-05-14T16:39:05.309Z,18.17
2023-05-14T16:40:07.668Z,18.23
2023-05-14T16:41:13.134Z,18.38
2023-05-14T16:42:31.275Z,18.50
2023-05-14T16:43:36.296Z,18.72
2023-05-14T16:46:17.841Z,18.88
2023-05-14T16:47:25.410Z,19.03
2023-05-14T16:48:27.867Z,19.13
2023-05-14T16:49:34.138Z,19.20
2023-05-14T16:50:36.863Z,19.09
2023-05-14T16:51:58.295Z,19.13
2023-05-14T16:53:02.604Z,19.10
2023-05-14T16:54:16.055Z,18.98
2023-05-14T16:55:19.685Z,19.04
2023-05-14T16:56:38.883Z,19.09
2023-05-14T16:58:02.483Z,19.22
2023-05-14T16:59:08.237Z,19.29
2023-05-14T17:00:14.775Z,19.42
2023-05-14T17:01:24.627Z,19.53
2023-05-14T17:02:33.333Z,19.64